Overview Statistics Trail Chart Weather Telemetry Raw packets
 

This is the latest recevied weather packets stored in our database for station/object AB2HM. If no packets are shown the sender has not sent any weather packets the latest 10 day(s).

<< 14 15 16 17 18 19 >>
Time Temp. Humidity Pressure Rain* Wind** Luminosity Snow
1787888394 21.67° C 92% 1016.6 hPa 0 mm - - -
1787886587 21.67° C 91% 1016.5 hPa 0 mm - - -
1787884781 21.67° C 91% 1016.1 hPa 0 mm - - -
1787882973 21.67° C 90% 1016.2 hPa 0 mm - - -
1787881166 21.67° C 89% 1015.8 hPa 0 mm - - -
1787879356 21.67° C 88% 1016 hPa 0 mm - - -
1787877545 21.67° C 87% 1016.4 hPa 0 mm - - -
1787875742 22.22° C 86% 1016.9 hPa 0 mm - - -
1787873933 22.22° C 86% 1016.9 hPa 0 mm - - -
1787872132 22.78° C 86% 1016.9 hPa 0 mm - - -
1787870318 22.22° C 86% 1016.8 hPa 0 mm - - -
1787868497 22.22° C 86% 1016.2 hPa 0 mm - - -
1787866690 22.22° C 86% 1016.1 hPa 2.29 mm - - -
1787864889 22.22° C 88% 1016.2 hPa 6.1 mm - - -
1787863084 21.67° C 91% 1016.6 hPa 8.64 mm - - -
1787861284 21.67° C 92% 1016.8 hPa 10.92 mm - - -
1787859472 21.67° C 94% 1017.3 hPa 12.95 mm - - -
1787857668 20.56° C 93% 1018.2 hPa 13.97 mm - - -
1787855864 21.11° C 93% 1017.7 hPa 15.24 mm - - -
1787854057 21.11° C 92% 1018.2 hPa 14.99 mm - - -
1787852247 20.56° C 90% 1018.5 hPa 16 mm - - -
1787850446 22.22° C 85% 1017.4 hPa 9.91 mm - - -
1787848639 27.78° C 75% 1017.4 hPa 1.02 mm - - -
1787846832 28.33° C 70% 1017 hPa 0 mm - - -
1787845010 28.33° C 69% 1017.5 hPa 0 mm - - -

* Rain latest hour (hover to see other rain measurements)
** Current wind speed in m/s (hover to see current wind gust speed)